Terminal Aerodrome Forecast
Issued by NWS Brownsville, TX

Home | Current Version | Previous Version | Text Only | Print | Product List | Glossary On
Versions: 1 2 3 4 5 6 7 8 9 10 11 12 13 14 15
000
FTUS44 KBRO 291100
TAFMFE
TAF
KMFE 291138Z 2912/3012 00000KT P6SM VCSH SCT080 BKN250
      TEMPO 2912/2915 5SM -TSRA OVC040CB
     FM291500 15007KT P6SM VCSH OVC040
      TEMPO 2915/2918 5SM -TSRA OVC030CB
     FM291800 16011KT P6SM VCSH OVC025
      TEMPO 2918/2921 4SM -TSRA BKN020CB
     FM292100 13011KT P6SM VCSH OVC030
      TEMPO 2921/2924 5SM -TSRA BKN025CB
     FM300300 13006KT P6SM VCSH OVC040
      TEMPO 3003/3006 P6SM -SHRA OVC030
     FM300600 15006KT P6SM SCT040 OVC100 PROB30 3006/3010 5SM -SHRA
      BKN040=

USA.gov is the U.S. government's official web portal to all federal, state and local government web resources and services.